sensor_id;sensor_type;location;lat;lon;timestamp;P1;durP1;ratioP1;P2;durP2;ratioP2
23449;SDS011;11897;45.438;12.128;2022-08-11T00:01:28;1.00;;;1.00;;
23449;SDS011;11897;45.438;12.128;2022-08-11T00:03:56;1.25;;;1.15;;
23449;SDS011;11897;45.438;12.128;2022-08-11T00:06:31;2.00;;;1.27;;
23449;SDS011;11897;45.438;12.128;2022-08-11T00:09:01;1.67;;;1.25;;
23449;SDS011;11897;45.438;12.128;2022-08-11T00:11:33;1.38;;;1.27;;
23449;SDS011;11897;45.438;12.128;2022-08-11T00:14:03;2.20;;;1.42;;
23449;SDS011;11897;45.438;12.128;2022-08-11T00:16:31;3.58;;;1.30;;
23449;SDS011;11897;45.438;12.128;2022-08-11T00:18:58;2.15;;;1.48;;
23449;SDS011;11897;45.438;12.128;2022-08-11T00:21:31;1.58;;;1.48;;
23449;SDS011;11897;45.438;12.128;2022-08-11T00:24:09;4.57;;;1.50;;
23449;SDS011;11897;45.438;12.128;2022-08-11T00:26:36;0.90;;;0.90;;
23449;SDS011;11897;45.438;12.128;2022-08-11T00:29:06;1.75;;;1.20;;
23449;SDS011;11897;45.438;12.128;2022-08-11T00:31:33;2.05;;;1.52;;
23449;SDS011;11897;45.438;12.128;2022-08-11T00:34:01;1.90;;;1.40;;
23449;SDS011;11897;45.438;12.128;2022-08-11T00:36:29;1.55;;;1.35;;
23449;SDS011;11897;45.438;12.128;2022-08-11T00:39:04;1.45;;;1.17;;
23449;SDS011;11897;45.438;12.128;2022-08-11T00:41:33;1.42;;;1.20;;
23449;SDS011;11897;45.438;12.128;2022-08-11T00:44:18;1.52;;;1.23;;
23449;SDS011;11897;45.438;12.128;2022-08-11T00:46:50;3.13;;;1.65;;
23449;SDS011;11897;45.438;12.128;2022-08-11T00:49:24;2.55;;;1.42;;
23449;SDS011;11897;45.438;12.128;2022-08-11T00:51:58;1.85;;;1.30;;
23449;SDS011;11897;45.438;12.128;2022-08-11T00:57:21;1.30;;;1.08;;
23449;SDS011;11897;45.438;12.128;2022-08-11T00:59:57;2.05;;;1.60;;
23449;SDS011;11897;45.438;12.128;2022-08-11T01:02:38;1.70;;;1.20;;
23449;SDS011;11897;45.438;12.128;2022-08-11T01:10:44;1.60;;;1.20;;
23449;SDS011;11897;45.438;12.128;2022-08-11T01:13:18;1.27;;;1.05;;
23449;SDS011;11897;45.438;12.128;2022-08-11T01:30:09;1.40;;;1.27;;
23449;SDS011;11897;45.438;12.128;2022-08-11T01:35:41;1.63;;;1.50;;
23449;SDS011;11897;45.438;12.128;2022-08-11T01:38:22;1.30;;;1.20;;
23449;SDS011;11897;45.438;12.128;2022-08-11T01:41:03;1.55;;;1.30;;
23449;SDS011;11897;45.438;12.128;2022-08-11T01:43:55;2.40;;;1.48;;
23449;SDS011;11897;45.438;12.128;2022-08-11T01:46:46;1.00;;;0.90;;
23449;SDS011;11897;45.438;12.128;2022-08-11T01:49:18;4.70;;;1.17;;
23449;SDS011;11897;45.438;12.128;2022-08-11T01:54:39;0.90;;;0.90;;
23449;SDS011;11897;45.438;12.128;2022-08-11T01:57:10;1.38;;;1.08;;
23449;SDS011;11897;45.438;12.128;2022-08-11T01:59:40;1.13;;;1.02;;
23449;SDS011;11897;45.438;12.128;2022-08-11T02:05:10;1.83;;;1.20;;
23449;SDS011;11897;45.438;12.128;2022-08-11T02:07:48;5.78;;;1.20;;
23449;SDS011;11897;45.438;12.128;2022-08-11T02:10:21;1.45;;;1.02;;
23449;SDS011;11897;45.438;12.128;2022-08-11T02:13:11;1.42;;;0.98;;
23449;SDS011;11897;45.438;12.128;2022-08-11T02:15:41;1.38;;;1.20;;
23449;SDS011;11897;45.438;12.128;2022-08-11T02:18:12;1.35;;;1.00;;
23449;SDS011;11897;45.438;12.128;2022-08-11T02:20:43;1.92;;;1.17;;
23449;SDS011;11897;45.438;12.128;2022-08-11T02:23:30;1.98;;;1.30;;
23449;SDS011;11897;45.438;12.128;2022-08-11T02:26:13;1.23;;;1.02;;
23449;SDS011;11897;45.438;12.128;2022-08-11T02:28:46;1.00;;;0.90;;
23449;SDS011;11897;45.438;12.128;2022-08-11T02:31:17;1.13;;;1.00;;
23449;SDS011;11897;45.438;12.128;2022-08-11T02:34:05;1.05;;;0.93;;
23449;SDS011;11897;45.438;12.128;2022-08-11T02:36:37;2.05;;;1.30;;
23449;SDS011;11897;45.438;12.128;2022-08-11T02:39:08;3.95;;;1.27;;
23449;SDS011;11897;45.438;12.128;2022-08-11T02:41:42;2.63;;;1.40;;
23449;SDS011;11897;45.438;12.128;2022-08-11T02:44:28;2.35;;;1.00;;
23449;SDS011;11897;45.438;12.128;2022-08-11T02:47:02;1.00;;;0.90;;
23449;SDS011;11897;45.438;12.128;2022-08-11T02:49:37;1.85;;;1.40;;
23449;SDS011;11897;45.438;12.128;2022-08-11T02:52:28;1.42;;;1.10;;
23449;SDS011;11897;45.438;12.128;2022-08-11T02:55:01;1.60;;;1.20;;
23449;SDS011;11897;45.438;12.128;2022-08-11T02:57:34;2.72;;;1.20;;
23449;SDS011;11897;45.438;12.128;2022-08-11T03:00:04;1.15;;;0.95;;
23449;SDS011;11897;45.438;12.128;2022-08-11T03:08:24;1.45;;;1.10;;
23449;SDS011;11897;45.438;12.128;2022-08-11T03:11:01;2.17;;;1.30;;
23449;SDS011;11897;45.438;12.128;2022-08-11T03:13:52;3.20;;;1.42;;
23449;SDS011;11897;45.438;12.128;2022-08-11T03:16:40;2.47;;;0.93;;
23449;SDS011;11897;45.438;12.128;2022-08-11T03:22:04;1.17;;;1.00;;
23449;SDS011;11897;45.438;12.128;2022-08-11T03:24:38;1.85;;;0.70;;
23449;SDS011;11897;45.438;12.128;2022-08-11T03:27:11;1.10;;;1.00;;
23449;SDS011;11897;45.438;12.128;2022-08-11T03:29:41;1.48;;;1.15;;
23449;SDS011;11897;45.438;12.128;2022-08-11T03:32:18;1.70;;;1.15;;
23449;SDS011;11897;45.438;12.128;2022-08-11T03:34:47;1.20;;;1.10;;
23449;SDS011;11897;45.438;12.128;2022-08-11T03:43:33;1.35;;;1.08;;
23449;SDS011;11897;45.438;12.128;2022-08-11T03:46:05;1.50;;;1.10;;
23449;SDS011;11897;45.438;12.128;2022-08-11T03:48:37;2.35;;;1.05;;
23449;SDS011;11897;45.438;12.128;2022-08-11T03:51:12;1.13;;;0.88;;
23449;SDS011;11897;45.438;12.128;2022-08-11T03:53:47;1.45;;;1.20;;
23449;SDS011;11897;45.438;12.128;2022-08-11T03:56:20;1.20;;;1.10;;
23449;SDS011;11897;45.438;12.128;2022-08-11T03:58:58;4.15;;;0.95;;
23449;SDS011;11897;45.438;12.128;2022-08-11T04:01:43;1.00;;;0.90;;
23449;SDS011;11897;45.438;12.128;2022-08-11T04:04:35;2.75;;;1.15;;
23449;SDS011;11897;45.438;12.128;2022-08-11T04:10:06;2.38;;;1.05;;
23449;SDS011;11897;45.438;12.128;2022-08-11T04:12:49;1.30;;;1.00;;
23449;SDS011;11897;45.438;12.128;2022-08-11T04:15:34;1.40;;;1.10;;
23449;SDS011;11897;45.438;12.128;2022-08-11T04:24:07;1.23;;;1.10;;
23449;SDS011;11897;45.438;12.128;2022-08-11T04:26:53;1.55;;;1.17;;
23449;SDS011;11897;45.438;12.128;2022-08-11T04:29:28;1.80;;;1.20;;
23449;SDS011;11897;45.438;12.128;2022-08-11T04:32:03;1.42;;;1.08;;
23449;SDS011;11897;45.438;12.128;2022-08-11T04:34:40;2.80;;;1.02;;
23449;SDS011;11897;45.438;12.128;2022-08-11T04:49:12;1.13;;;0.82;;
23449;SDS011;11897;45.438;12.128;2022-08-11T04:52:06;1.33;;;1.10;;
23449;SDS011;11897;45.438;12.128;2022-08-11T04:55:01;0.95;;;0.90;;
23449;SDS011;11897;45.438;12.128;2022-08-11T04:57:52;1.02;;;0.90;;
23449;SDS011;11897;45.438;12.128;2022-08-11T05:00:44;1.05;;;0.95;;
23449;SDS011;11897;45.438;12.128;2022-08-11T05:03:52;1.58;;;1.08;;
23449;SDS011;11897;45.438;12.128;2022-08-11T05:06:49;1.30;;;0.98;;
23449;SDS011;11897;45.438;12.128;2022-08-11T05:09:27;1.25;;;1.00;;
23449;SDS011;11897;45.438;12.128;2022-08-11T05:12:01;2.85;;;0.80;;
23449;SDS011;11897;45.438;12.128;2022-08-11T05:14:32;0.95;;;0.82;;
23449;SDS011;11897;45.438;12.128;2022-08-11T05:17:33;0.80;;;0.80;;
23449;SDS011;11897;45.438;12.128;2022-08-11T05:20:24;1.33;;;1.08;;
23449;SDS011;11897;45.438;12.128;2022-08-11T05:23:10;2.88;;;1.10;;
23449;SDS011;11897;45.438;12.128;2022-08-11T05:25:56;5.82;;;0.85;;
23449;SDS011;11897;45.438;12.128;2022-08-11T05:28:41;0.85;;;0.70;;
23449;SDS011;11897;45.438;12.128;2022-08-11T05:31:31;1.15;;;0.93;;
23449;SDS011;11897;45.438;12.128;2022-08-11T05:34:17;5.95;;;1.30;;
23449;SDS011;11897;45.438;12.128;2022-08-11T05:37:03;1.10;;;1.00;;
23449;SDS011;11897;45.438;12.128;2022-08-11T05:39:32;1.00;;;0.90;;
23449;SDS011;11897;45.438;12.128;2022-08-11T05:42:18;2.28;;;0.93;;
23449;SDS011;11897;45.438;12.128;2022-08-11T05:45:09;1.25;;;1.05;;
23449;SDS011;11897;45.438;12.128;2022-08-11T05:47:53;3.05;;;1.33;;
23449;SDS011;11897;45.438;12.128;2022-08-11T05:50:38;1.20;;;1.10;;
23449;SDS011;11897;45.438;12.128;2022-08-11T05:53:23;1.83;;;1.17;;
23449;SDS011;11897;45.438;12.128;2022-08-11T05:56:09;1.33;;;1.05;;
23449;SDS011;11897;45.438;12.128;2022-08-11T05:58:43;1.35;;;0.98;;
23449;SDS011;11897;45.438;12.128;2022-08-11T06:01:11;1.20;;;0.90;;
23449;SDS011;11897;45.438;12.128;2022-08-11T06:03:38;1.33;;;1.23;;
23449;SDS011;11897;45.438;12.128;2022-08-11T06:06:23;2.42;;;1.05;;
23449;SDS011;11897;45.438;12.128;2022-08-11T06:08:53;1.15;;;0.82;;
23449;SDS011;11897;45.438;12.128;2022-08-11T06:11:25;2.03;;;0.90;;
23449;SDS011;11897;45.438;12.128;2022-08-11T06:13:54;1.27;;;0.95;;
23449;SDS011;11897;45.438;12.128;2022-08-11T06:16:22;0.95;;;0.65;;
23449;SDS011;11897;45.438;12.128;2022-08-11T06:18:51;1.05;;;0.95;;
23449;SDS011;11897;45.438;12.128;2022-08-11T06:21:18;1.45;;;1.08;;
23449;SDS011;11897;45.438;12.128;2022-08-11T06:23:46;0.80;;;0.80;;
23449;SDS011;11897;45.438;12.128;2022-08-11T06:26:13;2.35;;;0.93;;
23449;SDS011;11897;45.438;12.128;2022-08-11T06:28:42;1.33;;;0.90;;
23449;SDS011;11897;45.438;12.128;2022-08-11T06:31:11;1.75;;;1.02;;
23449;SDS011;11897;45.438;12.128;2022-08-11T06:33:43;6.28;;;1.10;;
23449;SDS011;11897;45.438;12.128;2022-08-11T06:36:21;0.93;;;0.82;;
23449;SDS011;11897;45.438;12.128;2022-08-11T06:38:55;0.93;;;0.80;;
23449;SDS011;11897;45.438;12.128;2022-08-11T06:41:24;3.58;;;0.80;;
23449;SDS011;11897;45.438;12.128;2022-08-11T06:44:04;0.75;;;0.75;;
23449;SDS011;11897;45.438;12.128;2022-08-11T06:46:33;0.88;;;0.70;;
23449;SDS011;11897;45.438;12.128;2022-08-11T06:49:02;3.55;;;0.93;;
23449;SDS011;11897;45.438;12.128;2022-08-11T06:51:31;0.88;;;0.80;;
23449;SDS011;11897;45.438;12.128;2022-08-11T06:53:59;1.20;;;0.75;;
23449;SDS011;11897;45.438;12.128;2022-08-11T06:56:28;1.10;;;0.90;;
23449;SDS011;11897;45.438;12.128;2022-08-11T06:59:15;1.98;;;0.90;;
23449;SDS011;11897;45.438;12.128;2022-08-11T07:02:04;1.60;;;1.00;;
23449;SDS011;11897;45.438;12.128;2022-08-11T07:04:33;1.48;;;0.95;;
23449;SDS011;11897;45.438;12.128;2022-08-11T07:07:12;3.55;;;0.98;;
23449;SDS011;11897;45.438;12.128;2022-08-11T07:10:03;0.65;;;0.60;;
23449;SDS011;11897;45.438;12.128;2022-08-11T07:12:56;0.85;;;0.60;;
23449;SDS011;11897;45.438;12.128;2022-08-11T07:15:43;0.65;;;0.65;;
23449;SDS011;11897;45.438;12.128;2022-08-11T07:18:13;2.58;;;0.50;;
23449;SDS011;11897;45.438;12.128;2022-08-11T07:21:07;1.08;;;0.98;;
23449;SDS011;11897;45.438;12.128;2022-08-11T07:23:53;1.90;;;0.80;;
23449;SDS011;11897;45.438;12.128;2022-08-11T07:26:38;0.70;;;0.52;;
23449;SDS011;11897;45.438;12.128;2022-08-11T07:29:23;0.60;;;0.52;;
23449;SDS011;11897;45.438;12.128;2022-08-11T07:31:52;2.00;;;0.70;;
23449;SDS011;11897;45.438;12.128;2022-08-11T07:34:20;0.80;;;0.80;;
23449;SDS011;11897;45.438;12.128;2022-08-11T07:36:49;1.40;;;0.98;;
23449;SDS011;11897;45.438;12.128;2022-08-11T07:39:18;1.20;;;0.63;;
23449;SDS011;11897;45.438;12.128;2022-08-11T07:41:46;1.23;;;0.80;;
23449;SDS011;11897;45.438;12.128;2022-08-11T07:44:13;0.60;;;0.60;;
23449;SDS011;11897;45.438;12.128;2022-08-11T07:46:42;1.63;;;0.73;;
23449;SDS011;11897;45.438;12.128;2022-08-11T07:49:33;0.60;;;0.60;;
23449;SDS011;11897;45.438;12.128;2022-08-11T07:52:18;0.98;;;0.88;;
23449;SDS011;11897;45.438;12.128;2022-08-11T07:55:11;0.50;;;0.50;;
23449;SDS011;11897;45.438;12.128;2022-08-11T07:57:38;1.83;;;0.60;;
23449;SDS011;11897;45.438;12.128;2022-08-11T08:00:23;0.82;;;0.80;;
23449;SDS011;11897;45.438;12.128;2022-08-11T08:03:07;1.23;;;0.70;;
23449;SDS011;11897;45.438;12.128;2022-08-11T08:05:52;1.23;;;0.85;;
23449;SDS011;11897;45.438;12.128;2022-08-11T08:08:37;1.15;;;0.63;;
23449;SDS011;11897;45.438;12.128;2022-08-11T08:11:22;0.70;;;0.50;;
23449;SDS011;11897;45.438;12.128;2022-08-11T08:14:07;0.80;;;0.80;;
23449;SDS011;11897;45.438;12.128;2022-08-11T08:16:52;1.45;;;0.88;;
23449;SDS011;11897;45.438;12.128;2022-08-11T08:19:36;0.70;;;0.70;;
23449;SDS011;11897;45.438;12.128;2022-08-11T08:22:04;1.85;;;0.95;;
23449;SDS011;11897;45.438;12.128;2022-08-11T08:24:31;1.30;;;0.77;;
23449;SDS011;11897;45.438;12.128;2022-08-11T08:26:59;0.77;;;0.47;;
23449;SDS011;11897;45.438;12.128;2022-08-11T08:29:28;0.70;;;0.70;;
23449;SDS011;11897;45.438;12.128;2022-08-11T08:32:14;1.58;;;0.90;;
23449;SDS011;11897;45.438;12.128;2022-08-11T08:34:41;0.55;;;0.50;;
23449;SDS011;11897;45.438;12.128;2022-08-11T08:37:10;0.85;;;0.60;;
23449;SDS011;11897;45.438;12.128;2022-08-11T08:39:37;0.68;;;0.68;;
23449;SDS011;11897;45.438;12.128;2022-08-11T08:42:05;0.52;;;0.52;;
23449;SDS011;11897;45.438;12.128;2022-08-11T08:44:33;3.53;;;0.75;;
23449;SDS011;11897;45.438;12.128;2022-08-11T08:47:01;4.85;;;0.60;;
23449;SDS011;11897;45.438;12.128;2022-08-11T08:49:30;0.70;;;0.52;;
23449;SDS011;11897;45.438;12.128;2022-08-11T08:52:00;1.55;;;0.80;;
23449;SDS011;11897;45.438;12.128;2022-08-11T08:54:31;1.35;;;0.63;;
23449;SDS011;11897;45.438;12.128;2022-08-11T08:57:00;1.85;;;0.70;;
23449;SDS011;11897;45.438;12.128;2022-08-11T08:59:32;0.40;;;0.40;;
23449;SDS011;11897;45.438;12.128;2022-08-11T09:02:02;0.75;;;0.60;;
23449;SDS011;11897;45.438;12.128;2022-08-11T09:04:29;0.70;;;0.70;;
23449;SDS011;11897;45.438;12.128;2022-08-11T09:06:58;1.17;;;0.90;;
23449;SDS011;11897;45.438;12.128;2022-08-11T09:09:26;0.47;;;0.47;;
23449;SDS011;11897;45.438;12.128;2022-08-11T09:11:57;0.88;;;0.57;;
23449;SDS011;11897;45.438;12.128;2022-08-11T09:14:26;1.20;;;0.55;;
23449;SDS011;11897;45.438;12.128;2022-08-11T09:17:13;0.60;;;0.60;;
23449;SDS011;11897;45.438;12.128;2022-08-11T09:19:41;1.42;;;0.38;;
23449;SDS011;11897;45.438;12.128;2022-08-11T09:22:08;0.50;;;0.50;;
23449;SDS011;11897;45.438;12.128;2022-08-11T09:24:52;0.80;;;0.80;;
23449;SDS011;11897;45.438;12.128;2022-08-11T09:27:37;0.80;;;0.70;;
23449;SDS011;11897;45.438;12.128;2022-08-11T09:30:05;0.70;;;0.60;;
23449;SDS011;11897;45.438;12.128;2022-08-11T09:32:32;0.40;;;0.40;;
23449;SDS011;11897;45.438;12.128;2022-08-11T09:35:00;0.98;;;0.70;;
23449;SDS011;11897;45.438;12.128;2022-08-11T09:37:27;0.55;;;0.55;;
23449;SDS011;11897;45.438;12.128;2022-08-11T09:40:12;1.88;;;0.50;;
23449;SDS011;11897;45.438;12.128;2022-08-11T09:42:57;0.77;;;0.77;;
23449;SDS011;11897;45.438;12.128;2022-08-11T09:45:43;0.60;;;0.52;;
23449;SDS011;11897;45.438;12.128;2022-08-11T09:48:10;1.58;;;0.70;;
23449;SDS011;11897;45.438;12.128;2022-08-11T09:50:37;2.00;;;0.90;;
23449;SDS011;11897;45.438;12.128;2022-08-11T09:53:04;0.50;;;0.43;;
23449;SDS011;11897;45.438;12.128;2022-08-11T09:55:31;1.30;;;0.73;;
23449;SDS011;11897;45.438;12.128;2022-08-11T09:57:59;1.92;;;0.52;;
23449;SDS011;11897;45.438;12.128;2022-08-11T10:00:42;2.55;;;0.68;;
23449;SDS011;11897;45.438;12.128;2022-08-11T10:03:10;0.50;;;0.50;;
23449;SDS011;11897;45.438;12.128;2022-08-11T10:05:37;1.15;;;0.55;;
23449;SDS011;11897;45.438;12.128;2022-08-11T10:08:34;0.52;;;0.50;;
23449;SDS011;11897;45.438;12.128;2022-08-11T10:11:02;0.93;;;0.70;;
23449;SDS011;11897;45.438;12.128;2022-08-11T10:13:32;0.50;;;0.50;;
23449;SDS011;11897;45.438;12.128;2022-08-11T10:16:20;0.68;;;0.55;;
23449;SDS011;11897;45.438;12.128;2022-08-11T10:18:49;0.93;;;0.70;;
23449;SDS011;11897;45.438;12.128;2022-08-11T10:21:21;0.55;;;0.40;;
23449;SDS011;11897;45.438;12.128;2022-08-11T10:23:48;0.85;;;0.47;;
23449;SDS011;11897;45.438;12.128;2022-08-11T10:26:35;1.00;;;0.45;;
23449;SDS011;11897;45.438;12.128;2022-08-11T10:29:21;0.90;;;0.65;;
23449;SDS011;11897;45.438;12.128;2022-08-11T10:32:06;1.30;;;0.80;;
23449;SDS011;11897;45.438;12.128;2022-08-11T10:34:50;0.50;;;0.50;;
23449;SDS011;11897;45.438;12.128;2022-08-11T10:37:19;4.55;;;0.50;;
23449;SDS011;11897;45.438;12.128;2022-08-11T10:39:47;0.45;;;0.45;;
23449;SDS011;11897;45.438;12.128;2022-08-11T10:42:14;0.65;;;0.60;;
23449;SDS011;11897;45.438;12.128;2022-08-11T10:45:02;3.40;;;0.50;;
23449;SDS011;11897;45.438;12.128;2022-08-11T10:47:49;0.55;;;0.55;;
23449;SDS011;11897;45.438;12.128;2022-08-11T10:50:16;1.27;;;0.65;;
23449;SDS011;11897;45.438;12.128;2022-08-11T10:53:00;0.85;;;0.70;;
23449;SDS011;11897;45.438;12.128;2022-08-11T10:55:45;1.02;;;0.50;;
23449;SDS011;11897;45.438;12.128;2022-08-11T10:58:29;0.55;;;0.52;;
23449;SDS011;11897;45.438;12.128;2022-08-11T11:01:17;0.70;;;0.70;;
23449;SDS011;11897;45.438;12.128;2022-08-11T11:03:47;1.15;;;0.52;;
23449;SDS011;11897;45.438;12.128;2022-08-11T11:06:20;0.60;;;0.60;;
23449;SDS011;11897;45.438;12.128;2022-08-11T11:08:51;0.90;;;0.60;;
23449;SDS011;11897;45.438;12.128;2022-08-11T11:11:18;0.95;;;0.50;;
23449;SDS011;11897;45.438;12.128;2022-08-11T11:13:48;0.68;;;0.60;;
23449;SDS011;11897;45.438;12.128;2022-08-11T11:16:39;0.70;;;0.70;;
23449;SDS011;11897;45.438;12.128;2022-08-11T11:19:24;1.10;;;0.50;;
23449;SDS011;11897;45.438;12.128;2022-08-11T11:21:53;0.75;;;0.50;;
23449;SDS011;11897;45.438;12.128;2022-08-11T11:24:41;1.30;;;0.70;;
23449;SDS011;11897;45.438;12.128;2022-08-11T11:27:13;0.30;;;0.28;;
23449;SDS011;11897;45.438;12.128;2022-08-11T11:29:52;1.17;;;0.80;;
23449;SDS011;11897;45.438;12.128;2022-08-11T11:32:26;1.13;;;0.75;;
23449;SDS011;11897;45.438;12.128;2022-08-11T11:37:43;2.05;;;0.50;;
23449;SDS011;11897;45.438;12.128;2022-08-11T11:40:12;1.48;;;0.52;;
23449;SDS011;11897;45.438;12.128;2022-08-11T11:42:40;1.85;;;0.90;;
23449;SDS011;11897;45.438;12.128;2022-08-11T11:45:08;0.35;;;0.35;;
23449;SDS011;11897;45.438;12.128;2022-08-11T11:47:36;0.93;;;0.60;;
23449;SDS011;11897;45.438;12.128;2022-08-11T11:50:03;0.43;;;0.43;;
23449;SDS011;11897;45.438;12.128;2022-08-11T11:52:31;1.10;;;0.95;;
23449;SDS011;11897;45.438;12.128;2022-08-11T11:54:59;2.72;;;0.70;;
23449;SDS011;11897;45.438;12.128;2022-08-11T11:57:28;0.75;;;0.65;;
23449;SDS011;11897;45.438;12.128;2022-08-11T12:00:13;1.20;;;0.80;;
23449;SDS011;11897;45.438;12.128;2022-08-11T12:03:00;1.42;;;0.77;;
23449;SDS011;11897;45.438;12.128;2022-08-11T12:05:30;0.60;;;0.60;;
23449;SDS011;11897;45.438;12.128;2022-08-11T12:07:59;1.02;;;0.60;;
23449;SDS011;11897;45.438;12.128;2022-08-11T12:10:42;0.82;;;0.55;;
23449;SDS011;11897;45.438;12.128;2022-08-11T12:13:11;0.40;;;0.40;;
23449;SDS011;11897;45.438;12.128;2022-08-11T12:15:55;0.60;;;0.60;;
23449;SDS011;11897;45.438;12.128;2022-08-11T12:18:24;0.60;;;0.60;;
23449;SDS011;11897;45.438;12.128;2022-08-11T12:20:51;0.40;;;0.40;;
23449;SDS011;11897;45.438;12.128;2022-08-11T12:23:18;0.60;;;0.60;;
23449;SDS011;11897;45.438;12.128;2022-08-11T12:26:02;2.55;;;0.68;;
23449;SDS011;11897;45.438;12.128;2022-08-11T12:28:46;0.60;;;0.38;;
23449;SDS011;11897;45.438;12.128;2022-08-11T12:31:13;0.60;;;0.52;;
23449;SDS011;11897;45.438;12.128;2022-08-11T12:33:42;0.80;;;0.80;;
23449;SDS011;11897;45.438;12.128;2022-08-11T12:36:11;0.55;;;0.55;;
23449;SDS011;11897;45.438;12.128;2022-08-11T12:38:39;0.50;;;0.40;;
23449;SDS011;11897;45.438;12.128;2022-08-11T12:41:07;0.65;;;0.60;;
23449;SDS011;11897;45.438;12.128;2022-08-11T12:43:52;2.10;;;0.73;;
23449;SDS011;11897;45.438;12.128;2022-08-11T12:46:36;1.10;;;0.60;;
23449;SDS011;11897;45.438;12.128;2022-08-11T12:49:07;3.00;;;0.70;;
23449;SDS011;11897;45.438;12.128;2022-08-11T12:52:08;0.60;;;0.50;;
23449;SDS011;11897;45.438;12.128;2022-08-11T12:54:39;0.70;;;0.60;;
23449;SDS011;11897;45.438;12.128;2022-08-11T12:57:08;1.95;;;0.70;;
23449;SDS011;11897;45.438;12.128;2022-08-11T12:59:59;1.38;;;0.50;;
23449;SDS011;11897;45.438;12.128;2022-08-11T13:02:43;0.55;;;0.55;;
23449;SDS011;11897;45.438;12.128;2022-08-11T13:05:29;0.70;;;0.57;;
23449;SDS011;11897;45.438;12.128;2022-08-11T13:07:57;0.93;;;0.63;;
23449;SDS011;11897;45.438;12.128;2022-08-11T13:10:27;0.77;;;0.63;;
23449;SDS011;11897;45.438;12.128;2022-08-11T13:13:08;0.57;;;0.57;;
23449;SDS011;11897;45.438;12.128;2022-08-11T13:15:35;0.73;;;0.43;;
23449;SDS011;11897;45.438;12.128;2022-08-11T13:18:02;0.80;;;0.50;;
23449;SDS011;11897;45.438;12.128;2022-08-11T13:20:36;0.77;;;0.70;;
23449;SDS011;11897;45.438;12.128;2022-08-11T13:23:03;1.05;;;0.80;;
23449;SDS011;11897;45.438;12.128;2022-08-11T13:25:32;0.70;;;0.60;;
23449;SDS011;11897;45.438;12.128;2022-08-11T13:27:59;1.33;;;0.65;;
23449;SDS011;11897;45.438;12.128;2022-08-11T13:30:27;0.50;;;0.40;;
23449;SDS011;11897;45.438;12.128;2022-08-11T13:33:12;0.65;;;0.45;;
23449;SDS011;11897;45.438;12.128;2022-08-11T13:35:42;0.95;;;0.65;;
23449;SDS011;11897;45.438;12.128;2022-08-11T13:38:10;0.68;;;0.68;;
23449;SDS011;11897;45.438;12.128;2022-08-11T13:40:38;0.82;;;0.60;;
23449;SDS011;11897;45.438;12.128;2022-08-11T13:43:05;1.13;;;0.60;;
23449;SDS011;11897;45.438;12.128;2022-08-11T13:45:33;0.77;;;0.75;;
23449;SDS011;11897;45.438;12.128;2022-08-11T13:48:00;1.00;;;0.70;;
23449;SDS011;11897;45.438;12.128;2022-08-11T13:50:29;2.05;;;0.90;;
23449;SDS011;11897;45.438;12.128;2022-08-11T13:53:18;0.52;;;0.52;;
23449;SDS011;11897;45.438;12.128;2022-08-11T13:55:47;1.05;;;0.65;;
23449;SDS011;11897;45.438;12.128;2022-08-11T13:58:14;2.28;;;0.80;;
23449;SDS011;11897;45.438;12.128;2022-08-11T14:00:43;1.13;;;0.70;;
23449;SDS011;11897;45.438;12.128;2022-08-11T14:03:11;0.73;;;0.60;;
23449;SDS011;11897;45.438;12.128;2022-08-11T14:05:38;0.52;;;0.50;;
23449;SDS011;11897;45.438;12.128;2022-08-11T14:08:08;3.72;;;0.77;;
23449;SDS011;11897;45.438;12.128;2022-08-11T14:10:38;1.17;;;0.60;;
23449;SDS011;11897;45.438;12.128;2022-08-11T14:13:06;0.52;;;0.52;;
23449;SDS011;11897;45.438;12.128;2022-08-11T14:15:50;1.00;;;0.52;;
23449;SDS011;11897;45.438;12.128;2022-08-11T14:18:18;1.25;;;0.47;;
23449;SDS011;11897;45.438;12.128;2022-08-11T14:20:47;0.57;;;0.57;;
23449;SDS011;11897;45.438;12.128;2022-08-11T14:23:34;1.00;;;0.85;;
23449;SDS011;11897;45.438;12.128;2022-08-11T14:26:02;1.23;;;0.52;;
23449;SDS011;11897;45.438;12.128;2022-08-11T14:28:51;0.57;;;0.52;;
23449;SDS011;11897;45.438;12.128;2022-08-11T14:31:20;0.40;;;0.40;;
23449;SDS011;11897;45.438;12.128;2022-08-11T14:33:48;0.63;;;0.52;;
23449;SDS011;11897;45.438;12.128;2022-08-11T14:36:16;0.57;;;0.55;;
23449;SDS011;11897;45.438;12.128;2022-08-11T14:38:42;0.35;;;0.35;;
23449;SDS011;11897;45.438;12.128;2022-08-11T14:41:11;1.55;;;0.93;;
23449;SDS011;11897;45.438;12.128;2022-08-11T14:43:55;1.05;;;0.77;;
23449;SDS011;11897;45.438;12.128;2022-08-11T14:46:39;0.80;;;0.60;;
23449;SDS011;11897;45.438;12.128;2022-08-11T14:49:24;1.02;;;0.68;;
23449;SDS011;11897;45.438;12.128;2022-08-11T14:51:51;0.52;;;0.52;;
23449;SDS011;11897;45.438;12.128;2022-08-11T14:54:21;0.68;;;0.50;;
23449;SDS011;11897;45.438;12.128;2022-08-11T14:57:07;0.38;;;0.38;;
23449;SDS011;11897;45.438;12.128;2022-08-11T14:59:35;0.63;;;0.63;;
23449;SDS011;11897;45.438;12.128;2022-08-11T15:02:03;0.80;;;0.55;;
23449;SDS011;11897;45.438;12.128;2022-08-11T15:04:48;0.45;;;0.45;;
23449;SDS011;11897;45.438;12.128;2022-08-11T15:07:15;0.75;;;0.68;;
23449;SDS011;11897;45.438;12.128;2022-08-11T15:09:43;0.70;;;0.60;;
23449;SDS011;11897;45.438;12.128;2022-08-11T15:12:11;0.80;;;0.60;;
23449;SDS011;11897;45.438;12.128;2022-08-11T15:14:43;0.70;;;0.60;;
23449;SDS011;11897;45.438;12.128;2022-08-11T15:17:28;0.90;;;0.73;;
23449;SDS011;11897;45.438;12.128;2022-08-11T15:19:57;0.80;;;0.55;;
23449;SDS011;11897;45.438;12.128;2022-08-11T15:22:43;0.53;;;0.50;;
23449;SDS011;11897;45.438;12.128;2022-08-11T15:25:27;0.65;;;0.40;;
23449;SDS011;11897;45.438;12.128;2022-08-11T15:27:59;0.80;;;0.50;;
23449;SDS011;11897;45.438;12.128;2022-08-11T15:30:44;0.50;;;0.50;;
23449;SDS011;11897;45.438;12.128;2022-08-11T15:33:30;0.52;;;0.45;;
23449;SDS011;11897;45.438;12.128;2022-08-11T15:36:15;0.68;;;0.68;;
23449;SDS011;11897;45.438;12.128;2022-08-11T15:39:00;0.57;;;0.57;;
23449;SDS011;11897;45.438;12.128;2022-08-11T15:41:29;0.63;;;0.52;;
23449;SDS011;11897;45.438;12.128;2022-08-11T15:44:16;0.40;;;0.40;;
23449;SDS011;11897;45.438;12.128;2022-08-11T15:47:01;0.40;;;0.40;;
23449;SDS011;11897;45.438;12.128;2022-08-11T15:49:31;1.83;;;0.80;;
23449;SDS011;11897;45.438;12.128;2022-08-11T15:52:01;0.50;;;0.47;;
23449;SDS011;11897;45.438;12.128;2022-08-11T15:54:29;0.55;;;0.40;;
23449;SDS011;11897;45.438;12.128;2022-08-11T15:56:57;0.40;;;0.40;;
23449;SDS011;11897;45.438;12.128;2022-08-11T15:59:27;0.43;;;0.40;;
23449;SDS011;11897;45.438;12.128;2022-08-11T16:02:15;1.90;;;0.50;;
23449;SDS011;11897;45.438;12.128;2022-08-11T16:05:02;0.43;;;0.43;;
23449;SDS011;11897;45.438;12.128;2022-08-11T16:07:32;0.38;;;0.30;;
23449;SDS011;11897;45.438;12.128;2022-08-11T16:10:00;0.30;;;0.30;;
23449;SDS011;11897;45.438;12.128;2022-08-11T16:12:29;0.90;;;0.60;;
23449;SDS011;11897;45.438;12.128;2022-08-11T16:14:59;1.15;;;0.60;;
23449;SDS011;11897;45.438;12.128;2022-08-11T16:17:44;0.75;;;0.50;;
23449;SDS011;11897;45.438;12.128;2022-08-11T16:20:12;0.52;;;0.40;;
23449;SDS011;11897;45.438;12.128;2022-08-11T16:22:39;1.75;;;0.55;;
23449;SDS011;11897;45.438;12.128;2022-08-11T16:25:09;0.40;;;0.40;;
23449;SDS011;11897;45.438;12.128;2022-08-11T16:27:37;0.70;;;0.50;;
23449;SDS011;11897;45.438;12.128;2022-08-11T16:30:07;0.60;;;0.43;;
23449;SDS011;11897;45.438;12.128;2022-08-11T16:32:35;0.63;;;0.50;;